Flight Track Log - Related Links

Times and Time Zones

All times are in EDT time to prevent confusion due to time zone crossing. See the SWA718 flight status page for this flight to view local times or setup timezone preferences in your user account.

Time Position Orientation Groundspeed Altitude Reporting Facility
EDT Latitude Longitude Course Direction KTS MPH feet Rate Location/Type
Mon 09:21:30 AM 37.7167 -122.2500 293° West 152 175 800  Level Northern Cal TRACON
Mon 09:22:30 AM 37.7333 -122.3000 293° West 199 229 2,400 1,700 Climbing Northern Cal TRACON
Mon 09:23:30 AM 37.7833 -122.3500 322° Northwest 245 282 4,200 2,368 Climbing Northern Cal TRACON
Mon 09:24:24 AM 37.8500 -122.3667 349° North 254 292 6,900 2,796 Climbing Northern Cal TRACON
Mon 09:25:13 AM 37.8978 -122.3628 North 283 326 9,000 2,455 Climbing Oakland Center
Mon 09:26:14 AM 37.9172 -122.2583 77° East 322 371 11,400 2,607 Climbing Oakland Center
Mon 09:27:15 AM 37.9339 -122.1333 80° East 355 409 14,300 2,777 Climbing Oakland Center
Mon 09:28:15 AM 37.9519 -122.0011 80° East 378 435 17,000 2,479 Climbing Oakland Center
Mon 09:29:16 AM 37.9694 -121.8611 81° East 398 458 19,300 2,529 Climbing Oakland Center
Mon 09:30:16 AM 37.9908 -121.6864 81° East 417 480 22,100 2,380 Climbing Oakland Center
Mon 09:31:17 AM 38.0106 -121.5333 81° East 436 502 24,100 1,934 Climbing Oakland Center
Mon 09:32:17 AM 38.0281 -121.3828 82° East 450 518 26,000 1,785 Climbing Oakland Center
Mon 09:33:18 AM 38.0481 -121.2208 81° East 463 533 27,700 1,525 Climbing Oakland Center
Mon 09:34:19 AM 38.0678 -121.0547 81° East 477 549 29,100 1,328 Climbing Oakland Center
Mon 09:35:20 AM 38.0903 -120.8828 81° East 493 567 30,400 1,587 Climbing Oakland Center
Mon 09:36:20 AM 38.1144 -120.7103 80° East 499 574 32,300 1,785 Climbing Oakland Center
Mon 09:37:21 AM 38.1369 -120.5403 80° East 493 567 34,000 1,574 Climbing Oakland Center
Mon 09:38:22 AM 38.1586 -120.3717 81° East 487 560 35,500 1,339 Climbing Oakland Center
Mon 09:39:22 AM 38.1808 -120.2044 80° East 483 556 36,700 744 Climbing Oakland Center
Mon 09:40:23 AM 38.2028 -120.0375 80° East 481 554 37,000 148 Climbing Oakland Center
Mon 09:41:24 AM 38.2278 -119.8350 81° East 484 557 37,000  Level Oakland Center
Mon 09:42:25 AM 38.2492 -119.6675 81° East 481 554 37,000  Level Oakland Center
Mon 09:43:25 AM 38.2706 -119.5003 81° East 480 552 37,000  Level Oakland Center
Mon 09:44:26 AM 38.2889 -119.3433 81° East 479 551 37,000  Level Oakland Center
Mon 09:45:27 AM 38.3053 -119.1747 83° East 481 554 37,000  Level Oakland Center
Mon 09:46:28 AM 38.3036 -119.0058 91° East 479 551 37,000  Level Oakland Center
Mon 09:47:29 AM 38.3064 -118.8383 89° East 478 550 37,000  Level Oakland Center
Mon 09:48:29 AM 38.3069 -118.6694 90° East 478 550 37,000  Level Oakland Center
Mon 09:49:30 AM 38.3075 -118.5017 90° East 477 549 37,000  Level Oakland Center
Mon 09:50:31 AM 38.3083 -118.2981 90° East 481 554 37,000  Level Oakland Center
Mon 09:51:32 AM 38.3083 -118.1278 90° East 482 555 37,000  Level Oakland Center
Mon 09:52:33 AM 38.3083 -117.9756 90° East 482 555 37,000  Level Oakland Center
Mon 09:53:34 AM 38.3086 -117.8039 90° East 484 557 37,000  Level Oakland Center
Mon 09:54:35 AM 38.3081 -117.6328 90° East 483 556 37,000  Level Oakland Center
Mon 09:55:13 AM 38.3069 -117.5300 91° East 480 552 37,000  Level Salt Lake Center
Mon 09:55:35 AM 38.2989 -117.4642 99° East 477 549 37,000  Level Oakland Center
Mon 09:56:14 AM 38.2733 -117.3317 104° East 475 547 37,000  Level Salt Lake Center
Mon 09:56:36 AM 38.2653 -117.2881 103° East 474 545 37,000  Level Oakland Center
Mon 09:57:49 AM 38.2281 -117.0917 104° East 476 548 37,000  Level Oakland Center
Mon 09:58:17 AM 38.2156 -117.0294 104° East 476 548 37,000  Level Salt Lake Center
Mon 09:59:19 AM 38.1769 -116.8319 104° East 477 549 37,000  Level Salt Lake Center
Mon 09:59:51 AM 38.1639 -116.7647 104° East 478 550 37,000  Level Oakland Center
Mon 10:00:52 AM 38.1317 -116.6006 104° East 478 550 37,000  Level Oakland Center
Mon 10:01:21 AM 38.1125 -116.5031 104° East 478 550 37,000  Level Salt Lake Center
Mon 10:02:23 AM 38.0797 -116.3381 104° East 482 555 37,000  Level Salt Lake Center
Mon 10:03:24 AM 38.0469 -116.1744 104° East 480 552 37,000  Level Salt Lake Center
Mon 10:04:26 AM 38.0142 -116.0092 104° East 481 554 37,000  Level Salt Lake Center
Mon 10:05:27 AM 37.9808 -115.8442 104° East 482 555 37,000  Level Salt Lake Center
Mon 10:06:29 AM 37.9467 -115.6800 105° East 481 554 37,000  Level Salt Lake Center
Mon 10:07:30 AM 37.9114 -115.5156 105° East 485 558 37,000  Level Salt Lake Center
Mon 10:08:32 AM 37.8778 -115.3508 104° East 483 556 37,000  Level Salt Lake Center
Mon 10:09:08 AM 37.8564 -115.2519 105° East 484 557 37,000  Level Los Angeles Center
Mon 10:10:10 AM 37.8239 -115.0800 103° East 483 556 37,000  Level Los Angeles Center
Mon 10:11:11 AM 37.7817 -114.8839 105° East 484 557 37,000  Level Los Angeles Center
Mon 10:12:13 AM 37.7544 -114.7539 105° East 481 554 37,000  Level Los Angeles Center
Mon 10:13:15 AM 37.7119 -114.5589 105° East 481 554 37,000  Level Los Angeles Center
Mon 10:15:18 AM 37.6389 -114.2347 106° East 482 555 37,000  Level Los Angeles Center
Mon 10:16:20 AM 37.6033 -114.0714 105° East 483 556 37,000  Level Los Angeles Center
Mon 10:17:21 AM 37.5675 -113.9053 105° East 494 568 37,000  Level Los Angeles Center
Mon 10:18:23 AM 37.5233 -113.7103 106° East 487 560 37,000  Level Los Angeles Center
Mon 10:19:25 AM 37.4864 -113.5464 106° East 487 560 37,000  Level Los Angeles Center
Mon 10:20:26 AM 37.4500 -113.3819 106° East 491 565 37,000  Level Los Angeles Center
Mon 10:21:28 AM 37.4114 -113.2150 106° East 498 573 37,000  Level Los Angeles Center
Mon 10:22:30 AM 37.3731 -113.0453 106° East 508 585 37,000  Level Los Angeles Center
Mon 10:23:31 AM 37.3342 -112.8767 106° East 511 588 37,000  Level Los Angeles Center
Mon 10:24:33 AM 37.2878 -112.6739 106° East 512 589 37,000  Level Los Angeles Center
Mon 10:25:35 AM 37.2483 -112.5047 106° East 511 588 37,000  Level Los Angeles Center
Mon 10:26:36 AM 37.2094 -112.3344 106° East 511 588 37,000  Level Los Angeles Center
Mon 10:27:50 AM 37.1686 -112.1647 107° East 511 588 37,000  Level Los Angeles Center
Mon 10:28:52 AM 37.1200 -111.9622 107° East 508 585 37,000  Level Los Angeles Center
Mon 10:29:54 AM 37.0711 -111.7622 107° East 504 580 37,000  Level Los Angeles Center
Mon 10:30:56 AM 37.0297 -111.5939 107° East 506 582 37,000  Level Los Angeles Center
Mon 10:31:20 AM 37.0164 -111.5253 104° East 506 582 37,000  Level Denver Center
Mon 10:32:22 AM 36.9758 -111.3569 107° East 507 583 37,000  Level Denver Center
Mon 10:33:24 AM 36.9303 -111.1917 109° East 505 581 37,000 435 Level Denver Center
Mon 10:34:26 AM 36.8886 -111.0233 107° East 507 583 37,900 968 Climbing Denver Center
Mon 10:35:28 AM 36.8464 -110.8575 108° East 504 580 39,000 532 Climbing Denver Center
Mon 10:36:30 AM 36.7964 -110.6603 108° East 499 574 39,000  Level Denver Center
Mon 10:37:32 AM 36.7544 -110.4939 107° East 502 578 39,000  Level Denver Center
Mon 10:38:34 AM 36.7125 -110.3289 108° East 502 578 39,000  Level Denver Center
Mon 10:39:36 AM 36.6697 -110.1625 108° East 504 580 39,000  Level Denver Center
Mon 10:40:38 AM 36.6267 -109.9992 108° East 501 577 39,000  Level Denver Center
Mon 10:41:40 AM 36.5783 -109.8156 108° East 500 575 39,000  Level Denver Center
Mon 10:42:42 AM 36.5364 -109.6586 108° East 498 573 39,000  Level Denver Center
Mon 10:43:44 AM 36.4881 -109.4761 108° East 498 573 39,000  Level Denver Center
Mon 10:44:46 AM 36.4467 -109.3200 108° East 495 570 39,000  Level Denver Center
Mon 10:45:49 AM 36.3986 -109.1381 108° East 495 570 39,000  Level Denver Center
Mon 10:46:51 AM 36.3572 -108.9831 108° East 492 566 39,000  Level Denver Center
Mon 10:47:53 AM 36.3075 -108.7997 109° East 494 568 39,000  Level Denver Center
Mon 10:48:55 AM 36.2653 -108.6422 108° East 495 570 39,000  Level Denver Center
Mon 10:49:57 AM 36.2219 -108.4853 109° East 497 572 39,000  Level Denver Center
Mon 10:50:59 AM 36.1714 -108.3028 109° East 498 573 39,000  Level Denver Center
Mon 10:52:01 AM 36.1264 -108.1467 110° East 501 577 39,000  Level Denver Center
Mon 10:53:04 AM 36.0756 -107.9644 109° East 503 579 39,000  Level Albuquerque Center
Mon 10:54:05 AM 36.0311 -107.8092 109° East 501 577 39,000  Level Albuquerque Center
Mon 10:55:07 AM 35.9789 -107.6289 110° East 499 574 39,000  Level Albuquerque Center
Mon 10:56:09 AM 35.9356 -107.4747 109° East 498 573 39,000  Level Albuquerque Center
Mon 10:57:11 AM 35.8922 -107.3217 109° East 495 570 39,000  Level Albuquerque Center
Mon 10:58:12 AM 35.8400 -107.1444 110° East 493 567 39,000  Level Albuquerque Center
Mon 10:59:14 AM 35.7972 -106.9917 109° East 492 566 39,000  Level Albuquerque Center
Mon 11:00:16 AM 35.7456 -106.8128 110° East 495 570 39,000  Level Albuquerque Center
Mon 11:01:18 AM 35.6994 -106.6578 110° East 500 575 39,000  Level Albuquerque Center
Mon 11:02:20 AM 35.6481 -106.4769 109° East 502 578 39,000  Level Albuquerque Center
Mon 11:03:21 AM 35.6022 -106.3267 111° Southeast 501 577 39,000  Level Albuquerque Center
Mon 11:04:23 AM 35.5542 -106.1653 110° East 501 577 39,000  Level Albuquerque Center
Mon 11:05:25 AM 35.5067 -106.0050 110° East 499 574 39,000  Level Albuquerque Center
Mon 11:06:27 AM 35.4506 -105.8206 110° East 498 573 39,000  Level Albuquerque Center
Mon 11:07:29 AM 35.4000 -105.6592 111° Southeast 501 577 39,000  Level Albuquerque Center
Mon 11:08:31 AM 35.3497 -105.4994 111° Southeast 500 575 39,000  Level Albuquerque Center
Mon 11:09:33 AM 35.2889 -105.3425 115° Southeast 504 580 39,000  Level Albuquerque Center
Mon 11:10:34 AM 35.2158 -105.1956 121° Southeast 503 579 39,000  Level Albuquerque Center
Mon 11:11:36 AM 35.1453 -105.0450 120° Southeast 506 582 39,000  Level Albuquerque Center
Mon 11:12:38 AM 35.0742 -104.8961 120° Southeast 505 581 39,000  Level Albuquerque Center
Mon 11:13:40 AM 34.9906 -104.7219 120° Southeast 505 581 39,000  Level Albuquerque Center
Mon 11:14:42 AM 34.9181 -104.5733 121° Southeast 508 585 39,000  Level Albuquerque Center
Mon 11:15:44 AM 34.8467 -104.4281 121° Southeast 503 579 39,000  Level Albuquerque Center
Mon 11:16:46 AM 34.7756 -104.2817 121° Southeast 503 579 39,000  Level Albuquerque Center
Mon 11:17:48 AM 34.7047 -104.1356 120° Southeast 501 577 39,000  Level Albuquerque Center
Mon 11:18:50 AM 34.6336 -103.9900 121° Southeast 500 575 39,000  Level Albuquerque Center
Mon 11:19:52 AM 34.5511 -103.8214 121° Southeast 497 572 39,000  Level Albuquerque Center
Mon 11:20:54 AM 34.4769 -103.6744 121° Southeast 504 580 39,000  Level Albuquerque Center
Mon 11:21:56 AM 34.4047 -103.5269 121° Southeast 506 582 39,000  Level Albuquerque Center
Mon 11:22:58 AM 34.3317 -103.3808 121° Southeast 505 581 39,000  Level Albuquerque Center
Mon 11:24:00 AM 34.2581 -103.2367 122° Southeast 502 578 39,000  Level Albuquerque Center
Mon 11:25:02 AM 34.1914 -103.1003 121° Southeast 503 579 39,000  Level Albuquerque Center
Mon 11:26:04 AM 34.1061 -102.9325 122° Southeast 493 567 39,000  Level Albuquerque Center
Mon 11:27:06 AM 34.0356 -102.7922 121° Southeast 489 563 39,000  Level Albuquerque Center
Mon 11:28:08 AM 33.9606 -102.6544 123° Southeast 491 565 39,000  Level Albuquerque Center
Mon 11:29:10 AM 33.8686 -102.5372 133° Southeast 487 560 39,000  Level Albuquerque Center
Mon 11:30:12 AM 33.7761 -102.4194 133° Southeast 480 552 39,000  Level Albuquerque Center
Mon 11:30:48 AM 33.7150 -102.3450 135° Southeast 481 554 39,000  Level Fort Worth Center
Mon 11:31:48 AM 33.6136 -102.2197 134° Southeast 475 547 39,000  Level Fort Worth Center
Mon 11:32:48 AM 33.5300 -102.1128 133° Southeast 475 547 39,000  Level Fort Worth Center
Mon 11:33:48 AM 33.4264 -101.9803 133° Southeast 480 552 39,000  Level Fort Worth Center
Mon 11:34:48 AM 33.3447 -101.8717 132° Southeast 480 552 39,000  Level Fort Worth Center
Mon 11:35:48 AM 33.2447 -101.7450 133° Southeast 480 552 39,000  Level Fort Worth Center
Mon 11:36:48 AM 33.1608 -101.6392 133° Southeast 486 559 39,000  Level Fort Worth Center
Mon 11:37:48 AM 33.0628 -101.5131 133° Southeast 481 554 39,000  Level Fort Worth Center
Mon 11:38:48 AM 32.9786 -101.4053 133° Southeast 481 554 39,000  Level Fort Worth Center
Mon 11:39:48 AM 32.8878 -101.2997 136° Southeast 476 548 39,000  Level Fort Worth Center
Mon 11:40:48 AM 32.7953 -101.1844 134° Southeast 476 548 39,000  Level Fort Worth Center
Mon 11:41:48 AM 32.7006 -101.0694 134° Southeast 476 548 39,000  Level Fort Worth Center
Mon 11:42:48 AM 32.6081 -100.9547 134° Southeast 476 548 39,000  Level Fort Worth Center
Mon 11:43:48 AM 32.5172 -100.8428 134° Southeast 476 548 39,000  Level Fort Worth Center
Mon 11:44:48 AM 32.4242 -100.7286 134° Southeast 476 548 39,000  Level Fort Worth Center
Mon 11:45:48 AM 32.3311 -100.6169 135° Southeast 476 548 39,000  Level Fort Worth Center
Mon 11:46:48 AM 32.2378 -100.5056 135° Southeast 476 548 39,000  Level Fort Worth Center
Mon 11:47:48 AM 32.1486 -100.3947 134° Southeast 476 548 39,000  Level Fort Worth Center
Mon 11:48:48 AM 32.0572 -100.2836 134° Southeast 476 548 39,000  Level Fort Worth Center
Mon 11:49:48 AM 31.9658 -100.1731 134° Southeast 476 548 39,000  Level Fort Worth Center
Mon 11:50:48 AM 31.8742 -100.0653 135° Southeast 471 542 39,000  Level Fort Worth Center
Mon 11:51:48 AM 31.7867 -99.9575 134° Southeast 466 536 39,000  Level Fort Worth Center
Mon 11:53:23 AM 31.6442 -99.7853 134° Southeast 458 527 39,000  Level Houston Center
Mon 11:54:25 AM 31.5558 -99.6797 134° Southeast 454 522 39,000  Level Houston Center
Mon 11:55:27 AM 31.4678 -99.5747 135° Southeast 451 519 39,000  Level Houston Center
Mon 11:56:29 AM 31.3756 -99.4658 135° Southeast 452 520 39,000  Level Houston Center
Mon 11:57:31 AM 31.2914 -99.3661 135° Southeast 448 516 39,000  Level Houston Center
Mon 11:58:33 AM 31.2286 -99.2103 115° Southeast 449 517 39,000  Level Houston Center
Mon 11:59:35 AM 31.1933 -99.0661 106° East 449 517 39,000  Level Houston Center
Mon 12:00:38 PM 31.1575 -98.9247 106° East 449 517 39,000  Level Houston Center
Mon 12:01:40 PM 31.1244 -98.7825 105° East 450 518 39,000  Level Houston Center
Mon 12:02:42 PM 31.0897 -98.6428 106° East 447 514 39,000  Level Houston Center
Mon 12:03:44 PM 31.0539 -98.5006 106° East 451 519 39,000  Level Houston Center
Mon 12:04:46 PM 31.0186 -98.3600 106° East 449 517 39,000  Level Houston Center
Mon 12:05:48 PM 30.9778 -98.1964 106° East 447 514 39,000  Level Houston Center
Mon 12:06:50 PM 30.9419 -98.0567 107° East 448 516 39,000  Level Houston Center
Mon 12:07:52 PM 30.9069 -97.9161 106° East 449 517 39,000  Level Houston Center
Mon 12:08:55 PM 30.8711 -97.7747 106° East 452 520 39,000 -912 Level Houston Center
Mon 12:09:57 PM 30.8339 -97.6358 107° East 448 516 37,100 -1,452 Descending Houston Center
Mon 12:10:59 PM 30.8000 -97.5003 106° East 438 504 36,000 -1,403 Descending Houston Center
Mon 12:12:01 PM 30.7586 -97.3419 107° East 440 506 34,200 -2,371 Descending Houston Center
Mon 12:13:03 PM 30.7225 -97.1978 106° East 464 534 31,100 -1,548 Descending Houston Center
Mon 12:14:05 PM 30.6875 -97.0603 106° East 451 519 31,000 -1,113 Descending Houston Center
Mon 12:15:07 PM 30.6533 -96.9306 107° East 425 489 28,800 -1,935 Descending Houston Center
Mon 12:16:09 PM 30.6197 -96.7992 107° East 424 488 27,000 -2,064 Descending Houston Center
Mon 12:17:12 PM 30.5789 -96.6517 108° East 411 473 24,500 -2,256 Descending Houston Center
Mon 12:18:14 PM 30.5450 -96.5314 108° East 396 456 22,300 -2,216 Descending Houston Center
Mon 12:19:03 PM 30.5161 -96.4325 109° East 383 441 20,400 -3,070 Descending Houston Center
Mon 12:19:40 PM 30.4900 -96.3700 116° Southeast 388 447 17,900 -3,440 Descending Houston Center
Mon 12:20:18 PM 30.4317 -96.3386 155° Southeast 393 452 16,100 -2,754 Descending Houston Center
Mon 12:20:41 PM 30.3867 -96.3136 154° Southeast 378 435 15,100 -2,129 Descending Houston Center
Mon 12:21:20 PM 30.3372 -96.2839 153° Southeast 378 435 13,900 -2,200 Descending Houston Center
Mon 12:21:41 PM 30.2961 -96.2583 152° Southeast 366 421 12,900 -2,032 Descending Houston Center
Mon 12:22:22 PM 30.2461 -96.2303 154° Southeast 367 422 11,800 -1,672 Descending Houston Center
Mon 12:22:42 PM 30.2056 -96.2058 152° Southeast 356 410 11,200 -774 Descending Houston Center
Mon 12:23:24 PM 30.1606 -96.1814 155° Southeast 345 397 11,000 -197 Descending Houston Center
Mon 12:23:43 PM 30.1267 -96.1639 156° South 303 349 11,000  Level Houston Center
Mon 12:24:26 PM 30.0825 -96.1406 155° Southeast 300 345 11,000  Level Houston Center
Mon 12:24:45 PM 30.0475 -96.1222 156° South 298 343 11,000  Level Houston Center
Mon 12:25:28 PM 30.0072 -96.1006 155° Southeast 297 342 11,000 -200 Level Houston Center
Mon 12:25:45 PM 29.9706 -96.0828 157° South 294 338 10,800 -968 Descending Houston Center
Mon 12:26:30 PM 29.9161 -96.0525 154° Southeast 298 343 10,000 -774 Descending Houston Center
Mon 12:26:47 PM 29.8956 -96.0406 153° Southeast 301 346 10,000 -95 Level Houston Center
Mon 12:27:33 PM 29.8406 -96.0125 156° South 298 343 9,900 -590 Descending Houston Center
Mon 12:27:48 PM 29.8189 -96.0011 155° Southeast 302 348 9,400 -1,161 Descending Houston Center
Mon 12:28:35 PM 29.7714 -95.9753 155° Southeast 300 345 8,700 -1,376 Descending Houston Center
Mon 12:29:37 PM 29.6939 -95.9081 143° Southeast 291 335 6,900 -1,306 Descending Houston Center
Mon 12:30:39 PM 29.6322 -95.8531 142° Southeast 284 327 6,000 -435 Descending Houston Center
Mon 12:31:41 PM 29.5814 -95.8064 141° Southeast 242 278 6,000 -45 Level Houston Center
Mon 12:32:53 PM 29.5922 -95.7147 82° East 245 282 5,900 -435 Descending Houston Center
Mon 12:33:45 PM 29.6119 -95.6650 65° Northeast 247 284 5,100 -947 Descending Houston Center
Mon 12:34:47 PM 29.6381 -95.5931 67° East 245 282 4,100 -960 Descending Houston Center
Mon 12:35:50 PM 29.6669 -95.5086 68° East 239 275 3,100 -864 Descending Houston Center
Mon 12:36:52 PM 29.6903 -95.4442 67° East 226 260 2,300 -508 Descending Houston Center
Mon 12:38:00 PM 29.7131 -95.3808 67° East 177 204 2,000 -419 Descending Houston Center
Mon 12:39:01 PM 29.6944 -95.3372 116° Southeast 158 182 1,400 -661 Descending Houston Center
Mon 12:39:58 PM 29.6719 -95.3111 135° Southeast 159 183 700 -655 Descending Houston Center
Mon 12:41:00 PM 29.6422 -95.2764 135° Southeast 148 170 100 -581 Descending Houston Center
Mon 12:42:00 PM 29.6454 -95.2789 North  Level Estimated

Login

Don't have an account? Register now (free) for customized features, flight alerts, and more!